Time;durP1;ratioP1;P1;durP2;ratioP2;P2;SDS_P1;SDS_P2;PMS_P1;PMS_P2;Temp;Humidity;BMP_temperature;BMP_pressure;BME280_temperature;BME280_humidity;BME280_pressure;Samples;Min_cycle;Max_cycle;Signal;HPM_P1;HPM_P2
2022/04/25 00:01:16;;;;;;;23.95;14.57;;;15.90;72.70;;;;;;5070741;28;20040;-65
2022/04/25 00:03:42;;;;;;;20.13;14.55;;;15.90;72.80;;;;;;5068888;28;20106;-65
2022/04/25 00:06:08;;;;;;;20.42;14.45;;;15.80;73.60;;;;;;5069190;28;20052;-65
2022/04/25 00:08:34;;;;;;;20.10;14.23;;;15.80;73.80;;;;;;5069757;28;20113;-65
2022/04/25 00:11:00;;;;;;;24.50;15.30;;;15.70;73.10;;;;;;5070155;28;20141;-65
2022/04/25 00:13:26;;;;;;;19.85;14.18;;;15.70;74.00;;;;;;5069520;28;20028;-66
2022/04/25 00:15:55;;;;;;;23.30;16.00;;;15.70;74.00;;;;;;5069497;28;20032;-65
2022/04/25 00:18:22;;;;;;;22.92;16.50;;;15.70;74.70;;;;;;5068342;28;20028;-65
2022/04/25 00:20:48;;;;;;;25.05;16.10;;;15.60;73.10;;;;;;5068548;28;20025;-65
2022/04/25 00:23:14;;;;;;;27.05;16.55;;;15.50;72.60;;;;;;5068418;28;20755;-65
2022/04/25 00:25:40;;;;;;;22.35;15.95;;;15.50;72.10;;;;;;5064798;28;20017;-65
2022/04/25 00:28:07;;;;;;;22.27;16.73;;;15.40;72.10;;;;;;5069630;28;20036;-66
2022/04/25 00:30:33;;;;;;;24.08;16.52;;;15.40;72.10;;;;;;5070130;28;20032;-65
2022/04/25 00:33:00;;;;;;;24.42;16.08;;;15.30;71.20;;;;;;5066626;28;20036;-66
2022/04/25 00:35:26;;;;;;;25.95;16.42;;;15.30;72.10;;;;;;5067865;28;20070;-65
2022/04/25 00:37:52;;;;;;;25.38;15.73;;;15.30;71.40;;;;;;5068075;28;20029;-65
2022/04/25 00:40:20;;;;;;;26.05;17.10;;;15.30;71.50;;;;;;5069328;28;20020;-65
2022/04/25 00:42:46;;;;;;;22.90;15.75;;;15.30;72.40;;;;;;5068332;28;20043;-66
2022/04/25 00:45:13;;;;;;;26.98;16.52;;;15.30;72.40;;;;;;5069420;28;20025;-65
2022/04/25 00:47:40;;;;;;;23.65;16.27;;;15.30;72.50;;;;;;5068818;28;20487;-65
2022/04/25 00:50:08;;;;;;;21.45;16.52;;;15.30;71.50;;;;;;5067845;28;20063;-66
2022/04/25 00:52:33;;;;;;;24.23;16.60;;;15.30;71.30;;;;;;5069058;28;20032;-65
2022/04/25 00:55:02;;;;;;;24.80;15.65;;;15.20;71.10;;;;;;5068926;28;20081;-65
2022/04/25 00:57:28;;;;;;;24.38;16.63;;;15.20;71.30;;;;;;5068608;28;20051;-65
2022/04/25 00:59:57;;;;;;;22.33;16.63;;;15.20;71.40;;;;;;5068639;28;20422;-65
2022/04/25 01:02:25;;;;;;;27.50;17.30;;;15.20;71.50;;;;;;5069081;28;20116;-65
2022/04/25 01:04:51;;;;;;;24.25;16.92;;;;;;;;;;5069052;28;20405;-65
2022/04/25 01:07:16;;;;;;;25.33;16.88;;;15.10;71.60;;;;;;5067684;28;20041;-65
2022/04/25 01:09:42;;;;;;;27.00;17.05;;;15.10;72.70;;;;;;5068856;28;20031;-65
2022/04/25 01:12:08;;;;;;;26.10;16.63;;;15.00;71.80;;;;;;5068008;28;20079;-65
2022/04/25 01:14:34;;;;;;;24.77;17.25;;;15.00;71.70;;;;;;5066938;28;20037;-65
2022/04/25 01:17:00;;;;;;;25.27;17.52;;;15.00;71.60;;;;;;5068876;28;20024;-65
2022/04/25 01:19:26;;;;;;;25.63;18.10;;;14.90;72.30;;;;;;5070647;28;20040;-65
2022/04/25 01:22:01;;;;;;;25.60;17.33;;;14.80;71.30;;;;;;5067490;28;20036;-65
2022/04/25 01:27:16;;;;;;;26.20;16.80;;;14.80;72.20;;;;;;5068692;28;20556;-65
2022/04/25 01:29:43;;;;;;;28.20;17.48;;;14.80;72.20;;;;;;5068334;28;20028;-65
2022/04/25 01:32:09;;;;;;;26.25;17.42;;;14.70;72.10;;;;;;5068222;28;20399;-65
2022/04/25 01:34:38;;;;;;;28.77;17.45;;;14.70;72.10;;;;;;5068111;28;20036;-66
2022/04/25 01:37:12;;;;;;;27.98;17.58;;;14.70;72.10;;;;;;5068039;28;20535;-65
2022/04/25 01:39:39;;;;;;;25.73;17.58;;;14.60;71.20;;;;;;5067300;28;20036;-65
2022/04/25 01:42:07;;;;;;;25.13;17.20;;;14.60;72.10;;;;;;5068721;28;20047;-65
2022/04/25 01:44:33;;;;;;;27.85;17.85;;;14.60;72.10;;;;;;5067986;28;20036;-65
2022/04/25 01:46:59;;;;;;;28.50;18.08;;;14.50;71.90;;;;;;5067820;28;20111;-65
2022/04/25 01:49:25;;;;;;;28.02;17.40;;;14.50;71.90;;;;;;5056921;28;20112;-65
2022/04/25 01:51:51;;;;;;;25.73;17.08;;;14.40;70.90;;;;;;5064045;28;20021;-65
2022/04/25 01:54:26;;;;;;;26.00;17.60;;;14.40;70.90;;;;;;5066759;28;20040;-65
2022/04/25 01:56:55;;;;;;;29.38;18.42;;;14.40;71.80;;;;;;5067945;28;20024;-65
2022/04/25 01:59:22;;;;;;;27.38;18.27;;;14.30;71.90;;;;;;5068717;28;20029;-65
2022/04/25 02:01:48;;;;;;;27.48;17.63;;;14.20;71.40;;;;;;5066203;28;20389;-65
2022/04/25 02:04:14;;;;;;;24.13;17.27;;;14.10;72.20;;;;;;5068177;28;20819;-65
2022/04/25 02:06:40;;;;;;;29.10;17.52;;;14.20;71.70;;;;;;5067747;28;20020;-65
2022/04/25 02:09:06;;;;;;;26.65;17.67;;;14.20;72.60;;;;;;5067654;28;20074;-65
2022/04/25 02:11:32;;;;;;;26.08;17.42;;;14.10;72.60;;;;;;5067234;28;20028;-65
2022/04/25 02:13:58;;;;;;;24.98;16.92;;;14.10;72.60;;;;;;5067963;28;20033;-65
2022/04/25 02:16:25;;;;;;;25.33;18.10;;;14.10;72.60;;;;;;5068518;28;20033;-65
2022/04/25 02:18:52;;;;;;;25.67;17.75;;;14.00;72.60;;;;;;5059875;28;20544;-65
2022/04/25 02:21:19;;;;;;;25.02;18.17;;;14.00;72.60;;;;;;5066596;28;20021;-65
2022/04/25 02:23:46;;;;;;;24.25;17.27;;;13.90;71.90;;;;;;5067384;28;20037;-65
2022/04/25 02:26:12;;;;;;;27.95;17.75;;;13.90;72.60;;;;;;5067347;28;20032;-65
2022/04/25 02:28:39;;;;;;;27.77;17.33;;;13.90;72.60;;;;;;5067796;28;20037;-65
2022/04/25 02:31:07;;;;;;;24.80;17.40;;;13.80;72.00;;;;;;5067239;28;20090;-66
2022/04/25 02:33:34;;;;;;;27.33;17.55;;;13.80;72.80;;;;;;5067039;28;20086;-65
2022/04/25 02:36:01;;;;;;;25.67;16.48;;;13.70;71.90;;;;;;5066402;28;20734;-65
2022/04/25 02:38:27;;;;;;;24.50;16.75;;;13.70;72.80;;;;;;5066925;28;20051;-65
2022/04/25 02:41:04;;;;;;;26.85;17.48;;;13.60;72.80;;;;;;5068230;28;20508;-65
2022/04/25 02:43:39;;;;;;;24.27;16.88;;;13.60;72.50;;;;;;5068143;28;20053;-65
2022/04/25 02:46:07;;;;;;;23.65;16.98;;;13.50;72.80;;;;;;5066697;28;20063;-65
2022/04/25 02:48:34;;;;;;;24.27;16.75;;;13.50;73.50;;;;;;5061800;28;20031;-65
2022/04/25 02:51:02;;;;;;;28.90;16.73;;;13.50;73.60;;;;;;5062861;28;20434;-65
2022/04/25 02:53:28;;;;;;;25.38;17.33;;;13.50;72.80;;;;;;5066619;28;20041;-65
2022/04/25 02:55:54;;;;;;;24.42;16.75;;;13.40;72.60;;;;;;5067148;28;20757;-65
2022/04/25 02:58:21;;;;;;;24.60;17.02;;;13.40;72.70;;;;;;5067017;28;20032;-65
2022/04/25 03:00:47;;;;;;;25.17;16.70;;;13.40;73.50;;;;;;5067062;28;20029;-65
2022/04/25 03:03:19;;;;;;;24.88;16.02;;;13.30;73.70;;;;;;5067017;28;20029;-65
2022/04/25 03:05:49;;;;;;;21.85;15.95;;;13.30;72.80;;;;;;5067545;28;20020;-65
2022/04/25 03:08:18;;;;;;;23.50;15.68;;;13.30;73.10;;;;;;5065154;28;20032;-65
2022/04/25 03:10:45;;;;;;;24.73;17.08;;;13.20;73.00;;;;;;5064985;28;20032;-65
2022/04/25 03:13:12;;;;;;;23.92;16.63;;;13.40;73.30;;;;;;5067508;28;20056;-65
2022/04/25 03:15:38;;;;;;;26.15;16.35;;;13.20;73.90;;;;;;5066666;28;20157;-65
2022/04/25 03:18:10;;;;;;;26.08;17.30;;;13.10;73.10;;;;;;5066778;28;20071;-65
2022/04/25 03:20:37;;;;;;;27.08;16.77;;;13.10;73.90;;;;;;5067960;28;20098;-65
2022/04/25 03:23:05;;;;;;;24.88;16.17;;;13.10;73.70;;;;;;5065489;28;20036;-65
2022/04/25 03:25:32;;;;;;;26.02;16.42;;;13.00;73.60;;;;;;5069519;28;20514;-65
2022/04/25 03:27:58;;;;;;;24.25;15.77;;;13.00;72.60;;;;;;5068999;28;20116;-65
2022/04/25 03:30:24;;;;;;;25.48;16.58;;;13.00;73.40;;;;;;5069814;28;20028;-65
2022/04/25 03:32:50;;;;;;;23.27;16.67;;;12.90;72.70;;;;;;5069914;28;20029;-65
2022/04/25 03:35:18;;;;;;;28.38;16.75;;;12.90;72.60;;;;;;5071149;28;20032;-65
2022/04/25 03:37:45;;;;;;;23.08;16.85;;;12.90;73.40;;;;;;5070822;28;20507;-65
2022/04/25 03:40:11;;;;;;;27.65;16.98;;;12.90;72.90;;;;;;5069781;28;20035;-65
2022/04/25 03:42:38;;;;;;;24.75;16.65;;;12.80;73.00;;;;;;5069901;28;20053;-65
2022/04/25 03:45:05;;;;;;;22.77;15.07;;;12.80;72.90;;;;;;5071155;28;20050;-65
2022/04/25 03:47:32;;;;;;;22.10;14.88;;;12.80;73.60;;;;;;5069866;28;20024;-65
2022/04/25 03:49:58;;;;;;;19.52;14.75;;;12.80;72.60;;;;;;5070479;28;20020;-65
2022/04/25 03:52:24;;;;;;;25.02;15.68;;;12.70;73.30;;;;;;5070738;28;20033;-65
2022/04/25 03:57:34;;;;;;;24.30;16.17;;;12.70;72.90;;;;;;5065877;28;20043;-65
2022/04/25 04:00:00;;;;;;;27.75;16.90;;;12.70;73.40;;;;;;5069614;28;20020;-65
2022/04/25 04:02:26;;;;;;;22.50;16.35;;;12.70;73.50;;;;;;5069859;28;20068;-65
2022/04/25 04:04:52;;;;;;;26.73;16.70;;;;;;;;;;5068592;28;20833;-65
2022/04/25 04:07:17;;;;;;;25.75;15.73;;;12.70;73.60;;;;;;5067207;28;20040;-66
2022/04/25 04:09:46;;;;;;;25.02;16.23;;;12.70;73.80;;;;;;5069233;28;20128;-65
2022/04/25 04:12:19;;;;;;;26.58;16.15;;;12.70;73.70;;;;;;5068087;28;20056;-65
2022/04/25 04:14:46;;;;;;;23.63;16.42;;;12.70;74.60;;;;;;5068252;28;20059;-65
2022/04/25 04:17:13;;;;;;;25.13;16.50;;;12.70;74.60;;;;;;5069964;28;20035;-65
2022/04/25 04:19:39;;;;;;;25.92;16.20;;;12.70;74.60;;;;;;5071231;28;20040;-65
2022/04/25 04:22:08;;;;;;;24.17;15.75;;;12.70;74.10;;;;;;5070273;28;20059;-65
2022/04/25 04:24:34;;;;;;;24.13;15.18;;;12.60;74.70;;;;;;5070446;28;20070;-65
2022/04/25 04:27:04;;;;;;;22.50;16.05;;;12.60;74.80;;;;;;5070347;28;20103;-65
2022/04/25 04:29:34;;;;;;;27.65;16.05;;;12.50;74.00;;;;;;5070719;28;20082;-65
2022/04/25 04:32:07;;;;;;;26.30;15.77;;;12.50;74.80;;;;;;5070264;28;20087;-65
2022/04/25 04:34:36;;;;;;;22.30;15.68;;;12.50;73.80;;;;;;5070721;28;20033;-65
2022/04/25 04:37:05;;;;;;;24.52;15.88;;;12.50;73.60;;;;;;5068607;28;20036;-66
2022/04/25 04:39:31;;;;;;;26.45;16.52;;;12.40;74.30;;;;;;5064240;28;20033;-66
2022/04/25 04:41:57;;;;;;;24.10;15.65;;;12.40;73.30;;;;;;5065034;28;20048;-67
2022/04/25 04:44:23;;;;;;;24.23;16.08;;;12.40;73.30;;;;;;5067877;28;20222;-67
2022/04/25 04:46:49;;;;;;;25.33;16.52;;;12.40;73.40;;;;;;5053755;28;20129;-64
2022/04/25 04:49:16;;;;;;;28.40;15.50;;;12.40;74.20;;;;;;5070590;28;20025;-67
2022/04/25 04:51:42;;;;;;;22.83;15.13;;;12.30;73.20;;;;;;5069089;28;20037;-66
2022/04/25 04:54:08;;;;;;;26.20;14.48;;;12.00;73.30;;;;;;5066779;28;20426;-66
2022/04/25 04:56:34;;;;;;;25.95;15.65;;;13.00;73.60;;;;;;5067463;28;20017;-66
2022/04/25 04:59:01;;;;;;;24.38;14.80;;;12.20;73.70;;;;;;5069443;28;20035;-67
2022/04/25 05:01:27;;;;;;;22.33;14.75;;;12.20;72.90;;;;;;5069965;28;20028;-66
2022/04/25 05:03:58;;;;;;;22.75;15.88;;;12.10;73.60;;;;;;5068720;28;20040;-66
2022/04/25 05:06:26;;;;;;;28.17;16.35;;;12.10;73.20;;;;;;5069230;28;20052;-67
2022/04/25 05:08:52;;;;;;;21.67;14.98;;;12.00;73.50;;;;;;5069815;28;20441;-66
2022/04/25 05:11:17;;;;;;;24.30;15.00;;;12.00;73.10;;;;;;5066059;28;20035;-67
2022/04/25 05:13:43;;;;;;;25.83;15.70;;;12.00;72.80;;;;;;5063200;28;20032;-68
2022/04/25 05:16:10;;;;;;;28.52;15.20;;;12.00;73.50;;;;;;5065831;28;20495;-67
2022/04/25 05:18:36;;;;;;;23.38;14.60;;;12.00;73.40;;;;;;5064819;28;20025;-67
2022/04/25 05:21:03;;;;;;;25.05;14.95;;;11.80;72.90;;;;;;5064752;28;20036;-68
2022/04/25 05:23:29;;;;;;;26.67;14.10;;;11.40;72.30;;;;;;5062354;28;20040;-67
2022/04/25 05:25:55;;;;;;;23.33;13.82;;;12.00;73.40;;;;;;5063926;28;20111;-67
2022/04/25 05:28:22;;;;;;;22.08;14.25;;;11.90;73.30;;;;;;5064330;28;20032;-66
2022/04/25 05:30:48;;;;;;;24.40;14.95;;;11.90;73.40;;;;;;5064840;28;20022;-67
2022/04/25 05:33:17;;;;;;;25.00;14.68;;;11.90;73.50;;;;;;5066402;28;20032;-67
2022/04/25 05:35:43;;;;;;;24.88;15.63;;;11.90;73.60;;;;;;5068960;28;20025;-66
2022/04/25 05:38:10;;;;;;;25.65;15.07;;;12.00;73.90;;;;;;5068780;28;20047;-66
2022/04/25 05:40:36;;;;;;;21.95;14.10;;;12.10;74.00;;;;;;5070366;28;20028;-65
2022/04/25 05:43:04;;;;;;;24.23;15.32;;;12.10;72.80;;;;;;5067886;28;20048;-66
2022/04/25 05:45:31;;;;;;;22.65;14.50;;;12.20;72.60;;;;;;5066385;28;20056;-64
2022/04/25 05:47:57;;;;;;;25.27;15.30;;;12.20;73.30;;;;;;5067160;28;20028;-65
2022/04/25 05:53:09;;;;;;;24.08;14.98;;;12.40;73.20;;;;;;5068274;28;20075;-66
2022/04/25 05:55:36;;;;;;;24.80;15.10;;;12.60;71.90;;;;;;5068656;28;20056;-65
2022/04/25 05:58:03;;;;;;;26.55;15.02;;;12.60;71.80;;;;;;5068246;28;20036;-65
2022/04/25 06:00:30;;;;;;;24.08;14.68;;;12.70;72.50;;;;;;5068484;28;20028;-65
2022/04/25 06:02:57;;;;;;;23.10;14.68;;;12.80;71.20;;;;;;5068392;28;20072;-65
2022/04/25 06:05:23;;;;;;;21.33;14.05;;;13.10;70.80;;;;;;5068227;28;20082;-65
2022/04/25 06:07:50;;;;;;;24.90;14.38;;;13.10;71.40;;;;;;5068951;28;20044;-65
2022/04/25 06:10:18;;;;;;;26.65;14.70;;;13.30;70.80;;;;;;5069369;28;20024;-65
2022/04/25 06:12:49;;;;;;;25.85;15.18;;;13.60;69.90;;;;;;5068343;28;20078;-65
2022/04/25 06:15:16;;;;;;;27.42;15.73;;;13.80;68.80;;;;;;5067930;28;20040;-65
2022/04/25 06:17:42;;;;;;;23.90;14.75;;;14.40;66.70;;;;;;5068489;28;20094;-65
2022/04/25 06:20:10;;;;;;;23.52;13.88;;;14.40;65.90;;;;;;5068712;28;20025;-65
2022/04/25 06:22:37;;;;;;;30.45;14.27;;;15.00;62.30;;;;;;5069146;28;20540;-65
2022/04/25 06:25:07;;;;;;;23.10;14.48;;;15.10;62.80;;;;;;5068353;28;20078;-65
2022/04/25 06:27:33;;;;;;;24.42;13.38;;;15.80;59.40;;;;;;5067729;28;20032;-65
2022/04/25 06:29:59;;;;;;;26.33;13.88;;;16.20;57.60;;;;;;5067878;28;20094;-65
2022/04/25 06:32:26;;;;;;;24.38;13.57;;;16.20;58.00;;;;;;5068263;28;20032;-65
2022/04/25 06:34:52;;;;;;;23.55;13.93;;;16.60;56.50;;;;;;5068554;28;20028;-65
2022/04/25 06:37:18;;;;;;;26.55;13.88;;;17.00;55.20;;;;;;5068662;28;20108;-65
2022/04/25 06:39:44;;;;;;;24.88;13.80;;;17.40;54.20;;;;;;5067976;28;20043;-65
2022/04/25 06:42:10;;;;;;;24.02;13.07;;;17.70;53.10;;;;;;5066587;28;20044;-66
2022/04/25 06:44:39;;;;;;;24.65;12.68;;;18.00;52.10;;;;;;5067468;28;20054;-66
2022/04/25 06:47:05;;;;;;;24.98;13.05;;;18.30;51.40;;;;;;5068147;28;20037;-66
2022/04/25 06:49:32;;;;;;;25.45;12.65;;;18.50;50.30;;;;;;5069539;28;20396;-65
2022/04/25 06:51:59;;;;;;;23.65;12.68;;;18.80;49.60;;;;;;5067732;28;20127;-66
2022/04/25 06:54:30;;;;;;;24.05;12.80;;;18.80;49.00;;;;;;5067890;28;20035;-66
2022/04/25 06:56:59;;;;;;;23.20;12.98;;;18.70;48.80;;;;;;5068183;28;20035;-66
2022/04/25 06:59:25;;;;;;;22.08;12.60;;;18.40;49.80;;;;;;5070070;28;20096;-66
2022/04/25 07:01:51;;;;;;;23.95;13.35;;;18.10;51.20;;;;;;5072591;28;20029;-66
2022/04/25 07:04:18;;;;;;;28.20;13.02;;;18.00;52.70;;;;;;5072771;28;20068;-66
2022/04/25 07:06:44;;;;;;;21.52;12.43;;;17.50;54.20;;;;;;5071782;28;20036;-66
2022/04/25 07:09:14;;;;;;;24.42;13.25;;;17.40;55.00;;;;;;5072193;28;20024;-66
2022/04/25 07:11:43;;;;;;;24.10;12.70;;;17.40;55.50;;;;;;5072029;28;20052;-66
2022/04/25 07:14:12;;;;;;;29.25;12.85;;;17.50;55.90;;;;;;5071743;28;20029;-66
2022/04/25 07:16:39;;;;;;;23.45;11.63;;;17.60;55.60;;;;;;5072956;28;20102;-66
2022/04/25 07:19:06;;;;;;;22.77;12.02;;;17.80;55.00;;;;;;5071499;28;20399;-66
2022/04/25 07:29:48;;;;;;;23.60;11.80;;;18.30;53.50;;;;;;5071548;28;20106;-66
2022/04/25 07:32:18;;;;;;;20.70;11.50;;;18.40;52.80;;;;;;5071394;28;20068;-66
2022/04/25 07:34:46;;;;;;;23.70;11.32;;;18.40;52.30;;;;;;5068173;28;20130;-66
2022/04/25 07:37:12;;;;;;;20.33;11.68;;;18.50;52.20;;;;;;5071311;28;20036;-66
2022/04/25 07:39:38;;;;;;;19.73;10.90;;;18.60;52.30;;;;;;5071180;28;20032;-66
2022/04/25 07:42:04;;;;;;;19.10;10.45;;;18.80;52.60;;;;;;5070737;28;20040;-66
2022/04/25 07:44:30;;;;;;;18.63;10.15;;;19.00;51.70;;;;;;5071357;28;20036;-66
2022/04/25 07:46:56;;;;;;;18.67;10.05;;;19.20;50.80;;;;;;5071281;28;20028;-66
2022/04/25 07:49:22;;;;;;;18.52;10.10;;;19.40;50.00;;;;;;5071786;28;20064;-66
2022/04/25 07:51:48;;;;;;;20.65;10.07;;;19.70;48.10;;;;;;5070763;28;20020;-66
2022/04/25 07:54:15;;;;;;;18.63;9.65;;;19.60;48.90;;;;;;5066859;28;20032;-66
2022/04/25 07:56:42;;;;;;;17.40;10.20;;;19.80;48.40;;;;;;5070860;28;20441;-66
2022/04/25 07:59:08;;;;;;;22.13;9.85;;;20.00;48.00;;;;;;5071273;28;20119;-66
2022/04/25 08:01:34;;;;;;;16.63;9.68;;;20.20;47.90;;;;;;5072161;28;20455;-66
2022/04/25 08:04:00;;;;;;;20.23;9.30;;;20.50;47.00;;;;;;5070578;28;20041;-66
2022/04/25 08:06:26;;;;;;;24.33;10.27;;;20.80;45.80;;;;;;5070614;28;20028;-66
2022/04/25 08:08:53;;;;;;;17.77;9.23;;;21.30;44.80;;;;;;5070548;28;20021;-66
2022/04/25 08:11:20;;;;;;;17.42;8.70;;;22.10;43.10;;;;;;5069907;28;20024;-66
2022/04/25 08:19:15;;;;;;;18.15;8.43;;;24.80;34.80;;;;;;5071491;28;20043;-66
2022/04/25 08:21:42;;;;;;;15.95;8.65;;;26.00;31.70;;;;;;5070253;28;20406;-66
2022/04/25 08:24:09;;;;;;;17.20;8.60;;;26.80;30.00;;;;;;5070449;28;20032;-66
2022/04/25 08:26:35;;;;;;;17.95;8.75;;;27.60;29.30;;;;;;5070320;28;20039;-66
2022/04/25 08:29:01;;;;;;;13.77;8.18;;;28.20;27.90;;;;;;5070904;28;20028;-66
2022/04/25 08:31:27;;;;;;;15.57;8.57;;;28.40;27.20;;;;;;5071668;28;20035;-66
2022/04/25 08:33:55;;;;;;;18.52;8.27;;;28.70;27.20;;;;;;5069669;28;20029;-66
2022/04/25 08:36:22;;;;;;;19.48;8.57;;;28.90;26.80;;;;;;5070079;28;20035;-66
2022/04/25 08:38:48;;;;;;;16.02;8.55;;;29.10;26.20;;;;;;5070728;28;20555;-66
2022/04/25 08:41:27;;;;;;;16.92;8.43;;;29.20;25.90;;;;;;5069621;28;20391;-66
2022/04/25 08:43:55;;;;;;;16.48;8.90;;;29.30;25.90;;;;;;5067231;28;20109;-66
2022/04/25 08:46:22;;;;;;;16.98;8.63;;;29.60;25.90;;;;;;5071073;28;20037;-66
2022/04/25 08:48:50;;;;;;;13.70;8.13;;;29.90;25.90;;;;;;5070350;28;20070;-66
2022/04/25 08:51:16;;;;;;;16.88;8.00;;;30.10;25.30;;;;;;5070199;28;20527;-66
2022/04/25 08:53:44;;;;;;;18.23;8.05;;;30.30;25.00;;;;;;5069846;28;20395;-66
2022/04/25 08:56:10;;;;;;;17.65;8.48;;;30.20;24.90;;;;;;5069098;28;20090;-66
2022/04/25 08:58:46;;;;;;;16.73;8.23;;;29.70;25.10;;;;;;5071283;28;20024;-67
2022/04/25 09:01:13;;;;;;;15.48;8.27;;;29.10;25.40;;;;;;5070015;28;20056;-66
2022/04/25 09:03:38;;;;;;;15.77;8.23;;;28.40;26.40;;;;;;5069915;28;20048;-66
2022/04/25 09:06:06;;;;;;;15.23;8.73;;;27.60;27.30;;;;;;5069948;28;20028;-66
2022/04/25 09:08:32;;;;;;;15.18;8.55;;;26.90;28.70;;;;;;5069740;28;20047;-66
2022/04/25 09:13:47;;;;;;;16.88;8.30;;;25.60;32.10;;;;;;5067072;28;20039;-66
2022/04/25 09:16:14;;;;;;;17.83;9.00;;;25.00;33.80;;;;;;5069757;28;20056;-66
2022/04/25 09:18:41;;;;;;;18.42;8.80;;;24.70;34.70;;;;;;5069175;28;20029;-66
2022/04/25 09:21:07;;;;;;;17.13;8.55;;;24.40;35.40;;;;;;5069137;28;20074;-66
2022/04/25 09:23:33;;;;;;;20.23;9.30;;;24.30;34.00;;;;;;5068158;28;20111;-66
2022/04/25 09:26:08;;;;;;;20.10;9.27;;;24.30;34.90;;;;;;5069648;28;20108;-66
2022/04/25 09:28:44;;;;;;;15.60;9.07;;;24.20;35.30;;;;;;5070312;28;20688;-66
2022/04/25 09:31:13;;;;;;;15.45;9.07;;;24.10;35.80;;;;;;5069366;28;20105;-66
2022/04/25 09:33:39;;;;;;;19.23;8.60;;;24.10;36.10;;;;;;5069142;28;20035;-66
2022/04/25 09:36:06;;;;;;;15.95;8.45;;;24.10;35.80;;;;;;5068820;28;20029;-66
2022/04/25 09:38:37;;;;;;;16.05;8.45;;;24.20;35.60;;;;;;5068799;28;20033;-66
2022/04/25 09:41:04;;;;;;;;;;;24.10;35.80;;;;;;5069300;28;20028;-66
2022/04/25 09:43:32;;;;;;;17.48;9.57;;;24.10;35.10;;;;;;5070014;28;19916;-66
2022/04/25 09:46:12;;;;;;;20.35;9.60;;;24.10;35.60;;;;;;5068781;28;20029;-66
2022/04/25 09:48:41;;;;;;;18.08;9.68;;;24.10;35.90;;;;;;5068387;28;20028;-66
2022/04/25 09:51:16;;;;;;;13.32;8.18;;;24.10;35.90;;;;;;5068706;28;20052;-66
2022/04/25 09:53:50;;;;;;;14.80;8.00;;;24.20;35.90;;;;;;5068738;28;20035;-66
2022/04/25 09:56:23;;;;;;;19.42;8.32;;;24.30;35.10;;;;;;5052139;28;20037;-66
2022/04/25 09:59:26;;;;;;;16.48;8.27;;;24.40;35.20;;;;;;5049712;28;20032;-66
2022/04/25 10:02:04;;;;;;;17.13;8.68;;;24.60;34.50;;;;;;5064550;28;20032;-66
2022/04/25 10:04:34;;;;;;;14.65;8.10;;;24.70;34.40;;;;;;5067528;28;20095;-66
2022/04/25 10:07:05;;;;;;;15.25;8.52;;;24.80;33.60;;;;;;5065429;28;20048;-66
2022/04/25 10:09:34;;;;;;;19.02;8.20;;;25.10;33.70;;;;;;5066099;28;20111;-66
2022/04/25 10:12:02;;;;;;;15.35;8.27;;;25.30;33.40;;;;;;5066020;28;20056;-66
2022/04/25 10:14:28;;;;;;;15.95;9.15;;;25.60;31.80;;;;;;5063681;28;20017;-66
2022/04/25 10:16:59;;;;;;;18.35;9.68;;;25.80;30.80;;;;;;5066518;28;20039;-66
2022/04/25 10:19:25;;;;;;;15.68;7.88;;;26.00;30.00;;;;;;5067100;28;20102;-66
2022/04/25 10:21:53;;;;;;;16.92;8.30;;;26.10;30.30;;;;;;5065261;28;20527;-66
2022/04/25 10:24:19;;;;;;;17.33;8.77;;;26.30;30.30;;;;;;5063405;28;20036;-66
2022/04/25 10:26:47;;;;;;;16.80;8.60;;;26.40;30.00;;;;;;5065902;28;20028;-66
2022/04/25 10:29:17;;;;;;;17.60;8.75;;;26.40;30.70;;;;;;5065789;28;20037;-66
2022/04/25 10:31:47;;;;;;;16.40;8.63;;;26.40;30.00;;;;;;5062689;28;20068;-66
2022/04/25 10:34:16;;;;;;;14.55;7.75;;;26.50;29.80;;;;;;5065750;28;20074;-66
2022/04/25 10:36:48;;;;;;;14.68;8.13;;;26.50;29.40;;;;;;5065503;28;20082;-66
2022/04/25 10:39:27;;;;;;;16.40;8.57;;;26.40;29.70;;;;;;5060894;28;20043;-66
2022/04/25 10:44:38;;;;;;;14.77;7.50;;;26.40;29.50;;;;;;5067026;28;20040;-67
2022/04/25 10:47:07;;;;;;;14.25;6.70;;;26.40;29.00;;;;;;5067262;28;20047;-67
2022/04/25 10:49:42;;;;;;;13.80;6.88;;;26.20;29.10;;;;;;5069145;28;20028;-66
2022/04/25 10:52:42;;;;;;;14.23;6.70;;;26.30;29.60;;;;;;5067647;28;20114;-66
2022/04/25 10:55:31;;;;;;;;;;;26.60;29.50;;;;;;5068620;28;20069;-67
2022/04/25 10:58:03;;;;;;;15.32;6.50;;;27.00;29.20;;;;;;5067229;28;19912;-67
2022/04/25 11:00:37;;;;;;;9.75;5.80;;;27.10;28.50;;;;;;5068149;28;20037;-67
2022/04/25 11:03:08;;;;;;;13.10;5.72;;;27.20;27.10;;;;;;5068185;28;20521;-67
2022/04/25 11:05:36;;;;;;;10.18;4.88;;;27.50;26.50;;;;;;5067866;28;20071;-67
2022/04/25 11:08:20;;;;;;;9.20;4.85;;;27.50;27.10;;;;;;5068169;28;20028;-67
2022/04/25 11:10:52;;;;;;;12.02;5.68;;;27.70;25.50;;;;;;5065332;28;20029;-67
2022/04/25 11:13:18;;;;;;;11.60;5.20;;;27.70;25.90;;;;;;5068617;28;20124;-66
2022/04/25 11:15:49;;;;;;;9.35;4.68;;;27.70;26.40;;;;;;5067712;28;20514;-67
2022/04/25 11:18:34;;;;;;;10.75;4.35;;;27.70;26.20;;;;;;5067498;28;20430;-67
2022/04/25 11:21:05;;;;;;;11.73;4.68;;;27.80;25.50;;;;;;5067561;28;20470;-67
2022/04/25 11:23:33;;;;;;;10.73;4.70;;;27.90;25.90;;;;;;5066376;28;20105;-66
2022/04/25 11:26:00;;;;;;;13.63;4.55;;;28.00;25.80;;;;;;5067906;28;20024;-67
2022/04/25 11:28:26;;;;;;;11.93;4.63;;;28.10;25.40;;;;;;5068665;28;20108;-67
2022/04/25 11:31:28;;;;;;;10.35;4.70;;;28.10;24.80;;;;;;5067511;28;20036;-67
2022/04/25 11:34:02;;;;;;;12.63;4.75;;;28.10;24.80;;;;;;5064832;28;20564;-67
2022/04/25 11:36:29;;;;;;;9.18;4.20;;;28.20;25.10;;;;;;5064970;28;20045;-67
2022/04/25 11:41:43;;;;;;;12.10;4.43;;;28.20;25.60;;;;;;5064969;28;20660;-66
2022/04/25 11:44:09;;;;;;;11.85;3.25;;;28.40;24.20;;;;;;5064154;28;20052;-66
2022/04/25 11:46:36;;;;;;;11.75;4.03;;;28.40;24.00;;;;;;5067596;28;20025;-66
2022/04/25 11:49:04;;;;;;;12.30;4.47;;;28.50;24.40;;;;;;5069010;28;20048;-66
2022/04/25 11:51:32;;;;;;;10.35;4.05;;;28.70;24.20;;;;;;5068629;28;20025;-66
2022/04/25 11:54:00;;;;;;;14.20;4.30;;;28.80;24.30;;;;;;5067827;28;20054;-66
2022/04/25 11:56:28;;;;;;;10.45;3.65;;;29.00;24.20;;;;;;5068719;28;20034;-67
2022/04/25 11:58:55;;;;;;;10.73;4.22;;;29.30;23.80;;;;;;5068753;28;20597;-67
2022/04/25 12:01:40;;;;;;;11.82;3.78;;;29.60;23.60;;;;;;5069493;28;20111;-66
2022/04/25 12:04:24;;;;;;;10.38;3.80;;;29.90;23.30;;;;;;5067940;28;20415;-66
2022/04/25 12:07:08;;;;;;;13.88;4.07;;;30.00;22.90;;;;;;5066975;28;20032;-66
2022/04/25 12:15:34;;;;;;;11.73;4.15;;;31.10;22.30;;;;;;5070864;28;20036;-66
2022/04/25 12:18:15;;;;;;;;;;;31.10;22.10;;;;;;5070598;28;20137;-66
2022/04/25 12:20:42;;;;;;;8.65;3.50;;;29.80;23.40;;;;;;5070998;28;20645;-66
2022/04/25 12:23:09;;;;;;;11.02;3.50;;;29.40;23.10;;;;;;5070458;28;20105;-66
2022/04/25 12:25:41;;;;;;;8.45;3.33;;;30.50;22.30;;;;;;5071911;28;20032;-66
2022/04/25 12:28:13;;;;;;;9.23;3.28;;;31.40;21.00;;;;;;5070568;28;20078;-66
2022/04/25 12:30:47;;;;;;;8.55;3.35;;;32.30;20.50;;;;;;5068949;28;20032;-66
2022/04/25 12:33:14;;;;;;;8.25;3.20;;;33.10;20.30;;;;;;5070045;28;20126;-67
2022/04/25 12:35:42;;;;;;;11.25;3.70;;;33.90;19.50;;;;;;5070266;28;20522;-66
2022/04/25 12:38:09;;;;;;;9.50;3.65;;;34.10;18.00;;;;;;5070641;28;20071;-66
2022/04/25 12:40:55;;;;;;;11.32;3.80;;;33.80;18.80;;;;;;5071591;28;20056;-66
2022/04/25 12:43:42;;;;;;;7.88;2.70;;;33.80;18.90;;;;;;5070431;28;20282;-66
2022/04/25 12:46:09;;;;;;;10.63;3.30;;;34.70;18.00;;;;;;5069726;28;20029;-66
2022/04/25 12:49:01;;;;;;;9.00;2.60;;;35.60;17.20;;;;;;5069804;28;20028;-66
2022/04/25 12:51:27;;;;;;;10.52;2.97;;;36.00;16.40;;;;;;5067841;28;20035;-66
2022/04/25 12:53:53;;;;;;;8.20;2.40;;;36.30;16.50;;;;;;5069678;28;20051;-66
2022/04/25 12:56:30;;;;;;;10.70;2.80;;;36.70;15.90;;;;;;5070074;28;20403;-66
2022/04/25 12:58:56;;;;;;;6.68;2.30;;;36.90;15.50;;;;;;5069902;28;20098;-66
2022/04/25 13:01:29;;;;;;;10.77;2.80;;;37.00;15.10;;;;;;5070271;28;20491;-67
2022/04/25 13:04:07;;;;;;;9.13;2.80;;;37.00;15.60;;;;;;5066548;28;20051;-66
2022/04/25 13:06:35;;;;;;;11.25;3.03;;;37.00;15.70;;;;;;5069824;28;20031;-66
2022/04/25 13:09:01;;;;;;;8.05;3.10;;;36.80;15.60;;;;;;5069620;28;20029;-66
2022/04/25 13:11:27;;;;;;;9.20;3.00;;;36.30;16.20;;;;;;5069713;28;20024;-66
2022/04/25 13:13:53;;;;;;;8.32;3.00;;;36.00;16.10;;;;;;5069803;28;20446;-66
2022/04/25 13:16:19;;;;;;;9.38;2.72;;;35.90;16.40;;;;;;5070376;28;20028;-66